sensor_id;sensor_type;location;lat;lon;timestamp;P1;durP1;ratioP1;P2;durP2;ratioP2
43540;SDS011;29549;40.386;-3.710;2023-12-04T00:00:05;11.80;;;9.38;;
43540;SDS011;29549;40.386;-3.710;2023-12-04T00:00:17;11.70;;;9.27;;
43540;SDS011;29549;40.386;-3.710;2023-12-04T00:00:28;12.25;;;9.40;;
43540;SDS011;29549;40.386;-3.710;2023-12-04T00:00:39;11.80;;;9.10;;
43540;SDS011;29549;40.386;-3.710;2023-12-04T00:00:49;13.13;;;9.30;;
43540;SDS011;29549;40.386;-3.710;2023-12-04T00:01:00;12.90;;;9.57;;
43540;SDS011;29549;40.386;-3.710;2023-12-04T00:01:11;13.15;;;9.93;;
43540;SDS011;29549;40.386;-3.710;2023-12-04T00:01:22;12.88;;;9.93;;
43540;SDS011;29549;40.386;-3.710;2023-12-04T00:01:33;12.82;;;9.82;;
43540;SDS011;29549;40.386;-3.710;2023-12-04T00:01:44;12.45;;;9.77;;
43540;SDS011;29549;40.386;-3.710;2023-12-04T00:01:56;13.32;;;9.55;;
43540;SDS011;29549;40.386;-3.710;2023-12-04T00:02:07;13.90;;;9.50;;
43540;SDS011;29549;40.386;-3.710;2023-12-04T00:02:17;12.80;;;9.43;;
43540;SDS011;29549;40.386;-3.710;2023-12-04T00:02:28;12.43;;;9.37;;
43540;SDS011;29549;40.386;-3.710;2023-12-04T00:02:39;11.93;;;9.55;;
43540;SDS011;29549;40.386;-3.710;2023-12-04T00:02:50;11.65;;;9.57;;
43540;SDS011;29549;40.386;-3.710;2023-12-04T00:03:01;11.73;;;9.73;;
43540;SDS011;29549;40.386;-3.710;2023-12-04T00:03:11;11.25;;;9.60;;
43540;SDS011;29549;40.386;-3.710;2023-12-04T00:03:22;11.60;;;9.57;;
43540;SDS011;29549;40.386;-3.710;2023-12-04T00:03:33;11.57;;;9.73;;
43540;SDS011;29549;40.386;-3.710;2023-12-04T00:03:43;13.45;;;9.88;;
43540;SDS011;29549;40.386;-3.710;2023-12-04T00:03:55;13.65;;;10.02;;
43540;SDS011;29549;40.386;-3.710;2023-12-04T00:04:05;13.82;;;9.88;;
43540;SDS011;29549;40.386;-3.710;2023-12-04T00:04:16;12.50;;;9.77;;
43540;SDS011;29549;40.386;-3.710;2023-12-04T00:04:27;12.57;;;9.65;;
43540;SDS011;29549;40.386;-3.710;2023-12-04T00:04:38;12.53;;;9.93;;
43540;SDS011;29549;40.386;-3.710;2023-12-04T00:04:48;12.05;;;9.65;;
43540;SDS011;29549;40.386;-3.710;2023-12-04T00:04:59;12.13;;;9.60;;
43540;SDS011;29549;40.386;-3.710;2023-12-04T00:05:10;12.63;;;9.40;;
43540;SDS011;29549;40.386;-3.710;2023-12-04T00:05:21;13.10;;;9.38;;
43540;SDS011;29549;40.386;-3.710;2023-12-04T00:05:31;12.60;;;9.73;;
43540;SDS011;29549;40.386;-3.710;2023-12-04T00:05:42;11.73;;;9.77;;
43540;SDS011;29549;40.386;-3.710;2023-12-04T00:05:54;12.88;;;9.88;;
43540;SDS011;29549;40.386;-3.710;2023-12-04T00:06:05;13.13;;;9.57;;
43540;SDS011;29549;40.386;-3.710;2023-12-04T00:06:16;12.65;;;9.55;;
43540;SDS011;29549;40.386;-3.710;2023-12-04T00:06:26;12.02;;;9.32;;
43540;SDS011;29549;40.386;-3.710;2023-12-04T00:06:37;12.38;;;8.85;;
43540;SDS011;29549;40.386;-3.710;2023-12-04T00:06:48;12.68;;;8.85;;
43540;SDS011;29549;40.386;-3.710;2023-12-04T00:06:59;12.77;;;9.10;;
43540;SDS011;29549;40.386;-3.710;2023-12-04T00:07:10;14.27;;;9.90;;
43540;SDS011;29549;40.386;-3.710;2023-12-04T00:07:20;14.18;;;10.07;;
43540;SDS011;29549;40.386;-3.710;2023-12-04T00:07:31;12.80;;;9.95;;
43540;SDS011;29549;40.386;-3.710;2023-12-04T00:07:42;11.43;;;10.00;;
43540;SDS011;29549;40.386;-3.710;2023-12-04T00:07:53;11.67;;;9.77;;
43540;SDS011;29549;40.386;-3.710;2023-12-04T00:08:03;11.68;;;9.82;;
43540;SDS011;29549;40.386;-3.710;2023-12-04T00:08:14;11.20;;;9.63;;
43540;SDS011;29549;40.386;-3.710;2023-12-04T00:08:25;11.27;;;9.75;;
43540;SDS011;29549;40.386;-3.710;2023-12-04T00:08:36;11.68;;;9.63;;
43540;SDS011;29549;40.386;-3.710;2023-12-04T00:08:47;11.88;;;9.90;;
43540;SDS011;29549;40.386;-3.710;2023-12-04T00:08:58;11.93;;;9.82;;
43540;SDS011;29549;40.386;-3.710;2023-12-04T00:09:09;12.35;;;9.65;;
43540;SDS011;29549;40.386;-3.710;2023-12-04T00:09:20;12.65;;;9.60;;
43540;SDS011;29549;40.386;-3.710;2023-12-04T00:09:31;12.43;;;9.35;;
43540;SDS011;29549;40.386;-3.710;2023-12-04T00:09:41;12.30;;;9.43;;
43540;SDS011;29549;40.386;-3.710;2023-12-04T00:09:52;12.77;;;9.57;;
43540;SDS011;29549;40.386;-3.710;2023-12-04T00:10:03;12.32;;;9.45;;
43540;SDS011;29549;40.386;-3.710;2023-12-04T00:10:14;13.25;;;9.52;;
43540;SDS011;29549;40.386;-3.710;2023-12-04T00:10:25;11.73;;;8.95;;
43540;SDS011;29549;40.386;-3.710;2023-12-04T00:10:35;10.95;;;8.88;;
43540;SDS011;29549;40.386;-3.710;2023-12-04T00:10:46;10.90;;;8.75;;
43540;SDS011;29549;40.386;-3.710;2023-12-04T00:10:57;12.07;;;9.35;;
43540;SDS011;29549;40.386;-3.710;2023-12-04T00:11:08;11.87;;;9.37;;
43540;SDS011;29549;40.386;-3.710;2023-12-04T00:11:18;11.73;;;9.52;;
43540;SDS011;29549;40.386;-3.710;2023-12-04T00:11:29;13.13;;;9.55;;
43540;SDS011;29549;40.386;-3.710;2023-12-04T00:11:40;13.65;;;9.75;;
43540;SDS011;29549;40.386;-3.710;2023-12-04T00:11:51;14.07;;;9.57;;
43540;SDS011;29549;40.386;-3.710;2023-12-04T00:12:02;12.70;;;9.50;;
43540;SDS011;29549;40.386;-3.710;2023-12-04T00:12:13;12.48;;;9.38;;
43540;SDS011;29549;40.386;-3.710;2023-12-04T00:12:24;12.85;;;9.80;;
43540;SDS011;29549;40.386;-3.710;2023-12-04T00:12:35;13.75;;;9.90;;
43540;SDS011;29549;40.386;-3.710;2023-12-04T00:12:46;13.32;;;9.70;;
43540;SDS011;29549;40.386;-3.710;2023-12-04T00:12:56;13.38;;;9.68;;
43540;SDS011;29549;40.386;-3.710;2023-12-04T00:13:07;13.27;;;9.70;;
43540;SDS011;29549;40.386;-3.710;2023-12-04T00:13:18;12.85;;;9.65;;
43540;SDS011;29549;40.386;-3.710;2023-12-04T00:13:29;11.70;;;9.45;;
43540;SDS011;29549;40.386;-3.710;2023-12-04T00:13:39;11.63;;;9.07;;
43540;SDS011;29549;40.386;-3.710;2023-12-04T00:13:50;11.23;;;9.07;;
43540;SDS011;29549;40.386;-3.710;2023-12-04T00:14:01;12.65;;;9.80;;
43540;SDS011;29549;40.386;-3.710;2023-12-04T00:14:12;11.85;;;9.75;;
43540;SDS011;29549;40.386;-3.710;2023-12-04T00:14:22;12.30;;;9.75;;
43540;SDS011;29549;40.386;-3.710;2023-12-04T00:14:33;12.18;;;9.38;;
43540;SDS011;29549;40.386;-3.710;2023-12-04T00:14:44;13.45;;;9.55;;
43540;SDS011;29549;40.386;-3.710;2023-12-04T00:14:55;14.93;;;9.57;;
43540;SDS011;29549;40.386;-3.710;2023-12-04T00:15:06;13.95;;;9.73;;
43540;SDS011;29549;40.386;-3.710;2023-12-04T00:15:18;11.68;;;9.43;;
43540;SDS011;29549;40.386;-3.710;2023-12-04T00:15:30;11.50;;;9.25;;
43540;SDS011;29549;40.386;-3.710;2023-12-04T00:15:41;11.80;;;9.20;;
43540;SDS011;29549;40.386;-3.710;2023-12-04T00:15:52;11.13;;;9.38;;
43540;SDS011;29549;40.386;-3.710;2023-12-04T00:16:02;11.83;;;9.80;;
43540;SDS011;29549;40.386;-3.710;2023-12-04T00:16:14;11.80;;;10.15;;
43540;SDS011;29549;40.386;-3.710;2023-12-04T00:16:24;11.67;;;9.70;;
43540;SDS011;29549;40.386;-3.710;2023-12-04T00:16:35;10.88;;;9.43;;
43540;SDS011;29549;40.386;-3.710;2023-12-04T00:16:46;11.55;;;9.48;;
43540;SDS011;29549;40.386;-3.710;2023-12-04T00:16:57;12.27;;;9.80;;
43540;SDS011;29549;40.386;-3.710;2023-12-04T00:17:07;12.43;;;9.88;;
43540;SDS011;29549;40.386;-3.710;2023-12-04T00:17:18;12.20;;;9.77;;
43540;SDS011;29549;40.386;-3.710;2023-12-04T00:17:29;11.45;;;9.48;;
43540;SDS011;29549;40.386;-3.710;2023-12-04T00:17:40;11.70;;;9.70;;
43540;SDS011;29549;40.386;-3.710;2023-12-04T00:17:51;12.10;;;10.10;;
43540;SDS011;29549;40.386;-3.710;2023-12-04T00:18:01;13.98;;;10.18;;
43540;SDS011;29549;40.386;-3.710;2023-12-04T00:18:12;12.90;;;9.73;;
43540;SDS011;29549;40.386;-3.710;2023-12-04T00:18:23;12.32;;;9.43;;
43540;SDS011;29549;40.386;-3.710;2023-12-04T00:18:34;11.13;;;9.20;;
43540;SDS011;29549;40.386;-3.710;2023-12-04T00:18:44;12.23;;;9.63;;
43540;SDS011;29549;40.386;-3.710;2023-12-04T00:18:55;12.60;;;10.13;;
43540;SDS011;29549;40.386;-3.710;2023-12-04T00:19:06;12.45;;;10.30;;
43540;SDS011;29549;40.386;-3.710;2023-12-04T00:19:17;11.63;;;9.90;;
43540;SDS011;29549;40.386;-3.710;2023-12-04T00:19:27;12.23;;;9.50;;
43540;SDS011;29549;40.386;-3.710;2023-12-04T00:19:38;12.18;;;9.63;;
43540;SDS011;29549;40.386;-3.710;2023-12-04T00:19:49;12.60;;;9.68;;
43540;SDS011;29549;40.386;-3.710;2023-12-04T00:20:00;11.75;;;9.90;;
43540;SDS011;29549;40.386;-3.710;2023-12-04T00:20:10;10.53;;;9.30;;
43540;SDS011;29549;40.386;-3.710;2023-12-04T00:20:21;11.27;;;9.45;;
43540;SDS011;29549;40.386;-3.710;2023-12-04T00:20:32;11.75;;;9.68;;
43540;SDS011;29549;40.386;-3.710;2023-12-04T00:20:43;11.93;;;9.82;;
43540;SDS011;29549;40.386;-3.710;2023-12-04T00:20:53;11.20;;;9.57;;
43540;SDS011;29549;40.386;-3.710;2023-12-04T00:21:04;11.77;;;9.57;;
43540;SDS011;29549;40.386;-3.710;2023-12-04T00:21:15;12.70;;;9.63;;
43540;SDS011;29549;40.386;-3.710;2023-12-04T00:21:26;12.93;;;9.65;;
43540;SDS011;29549;40.386;-3.710;2023-12-04T00:21:37;12.07;;;9.50;;
43540;SDS011;29549;40.386;-3.710;2023-12-04T00:21:47;11.45;;;9.30;;
43540;SDS011;29549;40.386;-3.710;2023-12-04T00:21:58;11.38;;;9.18;;
43540;SDS011;29549;40.386;-3.710;2023-12-04T00:22:09;11.07;;;9.33;;
43540;SDS011;29549;40.386;-3.710;2023-12-04T00:22:20;11.38;;;9.57;;
43540;SDS011;29549;40.386;-3.710;2023-12-04T00:22:31;12.00;;;9.98;;
43540;SDS011;29549;40.386;-3.710;2023-12-04T00:22:41;12.60;;;9.88;;
43540;SDS011;29549;40.386;-3.710;2023-12-04T00:22:52;13.35;;;10.10;;
43540;SDS011;29549;40.386;-3.710;2023-12-04T00:23:04;12.63;;;10.23;;
43540;SDS011;29549;40.386;-3.710;2023-12-04T00:23:15;13.93;;;10.20;;
43540;SDS011;29549;40.386;-3.710;2023-12-04T00:23:26;13.18;;;9.80;;
43540;SDS011;29549;40.386;-3.710;2023-12-04T00:23:36;12.00;;;9.27;;
43540;SDS011;29549;40.386;-3.710;2023-12-04T00:23:47;11.68;;;9.32;;
43540;SDS011;29549;40.386;-3.710;2023-12-04T00:23:58;11.77;;;9.40;;
43540;SDS011;29549;40.386;-3.710;2023-12-04T00:24:09;12.70;;;9.52;;
43540;SDS011;29549;40.386;-3.710;2023-12-04T00:24:20;13.57;;;9.73;;
43540;SDS011;29549;40.386;-3.710;2023-12-04T00:24:30;13.38;;;9.75;;
43540;SDS011;29549;40.386;-3.710;2023-12-04T00:24:41;12.83;;;9.63;;
43540;SDS011;29549;40.386;-3.710;2023-12-04T00:24:52;12.47;;;9.47;;
43540;SDS011;29549;40.386;-3.710;2023-12-04T00:25:03;12.77;;;9.80;;
43540;SDS011;29549;40.386;-3.710;2023-12-04T00:25:16;13.07;;;10.00;;
43540;SDS011;29549;40.386;-3.710;2023-12-04T00:25:26;13.70;;;9.90;;
43540;SDS011;29549;40.386;-3.710;2023-12-04T00:25:37;13.50;;;9.87;;
43540;SDS011;29549;40.386;-3.710;2023-12-04T00:25:48;12.57;;;9.70;;
43540;SDS011;29549;40.386;-3.710;2023-12-04T00:25:58;14.27;;;9.90;;
43540;SDS011;29549;40.386;-3.710;2023-12-04T00:26:09;13.90;;;9.75;;
43540;SDS011;29549;40.386;-3.710;2023-12-04T00:26:20;12.52;;;9.45;;
43540;SDS011;29549;40.386;-3.710;2023-12-04T00:26:31;10.77;;;9.02;;
43540;SDS011;29549;40.386;-3.710;2023-12-04T00:26:42;11.27;;;9.17;;
43540;SDS011;29549;40.386;-3.710;2023-12-04T00:26:52;11.52;;;9.20;;
43540;SDS011;29549;40.386;-3.710;2023-12-04T00:27:03;11.68;;;9.88;;
43540;SDS011;29549;40.386;-3.710;2023-12-04T00:27:14;13.57;;;10.13;;
43540;SDS011;29549;40.386;-3.710;2023-12-04T00:27:25;14.40;;;10.00;;
43540;SDS011;29549;40.386;-3.710;2023-12-04T00:27:39;13.27;;;9.82;;
43540;SDS011;29549;40.386;-3.710;2023-12-04T00:27:49;11.67;;;9.53;;
43540;SDS011;29549;40.386;-3.710;2023-12-04T00:28:00;12.27;;;9.68;;
43540;SDS011;29549;40.386;-3.710;2023-12-04T00:28:11;11.93;;;9.65;;
43540;SDS011;29549;40.386;-3.710;2023-12-04T00:28:22;12.32;;;9.73;;
43540;SDS011;29549;40.386;-3.710;2023-12-04T00:28:33;11.18;;;9.63;;
43540;SDS011;29549;40.386;-3.710;2023-12-04T00:28:46;11.13;;;9.93;;
43540;SDS011;29549;40.386;-3.710;2023-12-04T00:28:57;11.65;;;9.82;;
43540;SDS011;29549;40.386;-3.710;2023-12-04T00:29:08;12.03;;;9.67;;
43540;SDS011;29549;40.386;-3.710;2023-12-04T00:29:19;12.88;;;10.05;;
43540;SDS011;29549;40.386;-3.710;2023-12-04T00:29:29;14.00;;;10.30;;
43540;SDS011;29549;40.386;-3.710;2023-12-04T00:29:40;14.77;;;10.52;;
43540;SDS011;29549;40.386;-3.710;2023-12-04T00:29:51;14.77;;;10.32;;
43540;SDS011;29549;40.386;-3.710;2023-12-04T00:30:05;13.70;;;10.02;;
43540;SDS011;29549;40.386;-3.710;2023-12-04T00:30:17;13.15;;;10.05;;
43540;SDS011;29549;40.386;-3.710;2023-12-04T00:30:27;12.73;;;10.35;;
43540;SDS011;29549;40.386;-3.710;2023-12-04T00:30:38;12.93;;;10.27;;
43540;SDS011;29549;40.386;-3.710;2023-12-04T00:30:49;12.82;;;10.20;;
43540;SDS011;29549;40.386;-3.710;2023-12-04T00:31:00;12.60;;;10.20;;
43540;SDS011;29549;40.386;-3.710;2023-12-04T00:31:10;12.60;;;9.97;;
43540;SDS011;29549;40.386;-3.710;2023-12-04T00:31:21;13.05;;;9.98;;
43540;SDS011;29549;40.386;-3.710;2023-12-04T00:31:32;14.73;;;9.95;;
43540;SDS011;29549;40.386;-3.710;2023-12-04T00:31:43;14.75;;;10.35;;
43540;SDS011;29549;40.386;-3.710;2023-12-04T00:31:53;13.85;;;10.18;;
43540;SDS011;29549;40.386;-3.710;2023-12-04T00:32:04;12.48;;;9.93;;
43540;SDS011;29549;40.386;-3.710;2023-12-04T00:32:15;13.63;;;9.83;;
43540;SDS011;29549;40.386;-3.710;2023-12-04T00:32:26;13.83;;;9.87;;
43540;SDS011;29549;40.386;-3.710;2023-12-04T00:32:37;14.70;;;10.20;;
43540;SDS011;29549;40.386;-3.710;2023-12-04T00:32:47;12.98;;;9.88;;
43540;SDS011;29549;40.386;-3.710;2023-12-04T00:32:58;12.30;;;9.55;;
43540;SDS011;29549;40.386;-3.710;2023-12-04T00:33:09;11.37;;;9.40;;
43540;SDS011;29549;40.386;-3.710;2023-12-04T00:33:20;11.30;;;9.43;;
43540;SDS011;29549;40.386;-3.710;2023-12-04T00:33:30;11.77;;;9.85;;
43540;SDS011;29549;40.386;-3.710;2023-12-04T00:33:41;11.80;;;9.93;;
43540;SDS011;29549;40.386;-3.710;2023-12-04T00:33:52;11.93;;;9.85;;
43540;SDS011;29549;40.386;-3.710;2023-12-04T00:34:03;11.05;;;9.60;;
43540;SDS011;29549;40.386;-3.710;2023-12-04T00:34:14;11.33;;;9.57;;
43540;SDS011;29549;40.386;-3.710;2023-12-04T00:34:24;11.38;;;9.07;;
43540;SDS011;29549;40.386;-3.710;2023-12-04T00:34:35;12.45;;;9.30;;
43540;SDS011;29549;40.386;-3.710;2023-12-04T00:34:46;12.70;;;9.73;;
43540;SDS011;29549;40.386;-3.710;2023-12-04T00:34:57;13.23;;;10.07;;
43540;SDS011;29549;40.386;-3.710;2023-12-04T00:35:08;13.45;;;10.10;;
43540;SDS011;29549;40.386;-3.710;2023-12-04T00:35:19;13.18;;;9.77;;
43540;SDS011;29549;40.386;-3.710;2023-12-04T00:35:29;12.52;;;9.68;;
43540;SDS011;29549;40.386;-3.710;2023-12-04T00:35:40;12.23;;;9.83;;
43540;SDS011;29549;40.386;-3.710;2023-12-04T00:35:51;13.10;;;10.35;;
43540;SDS011;29549;40.386;-3.710;2023-12-04T00:36:02;13.35;;;10.57;;
43540;SDS011;29549;40.386;-3.710;2023-12-04T00:36:13;12.88;;;10.45;;
43540;SDS011;29549;40.386;-3.710;2023-12-04T00:36:24;12.25;;;10.48;;
43540;SDS011;29549;40.386;-3.710;2023-12-04T00:36:34;13.27;;;10.77;;
43540;SDS011;29549;40.386;-3.710;2023-12-04T00:36:45;14.13;;;10.55;;
43540;SDS011;29549;40.386;-3.710;2023-12-04T00:36:56;15.53;;;10.70;;
43540;SDS011;29549;40.386;-3.710;2023-12-04T00:37:07;14.65;;;10.10;;
43540;SDS011;29549;40.386;-3.710;2023-12-04T00:37:17;14.10;;;10.15;;
43540;SDS011;29549;40.386;-3.710;2023-12-04T00:37:28;12.00;;;9.80;;
43540;SDS011;29549;40.386;-3.710;2023-12-04T00:37:39;12.47;;;10.10;;
43540;SDS011;29549;40.386;-3.710;2023-12-04T00:37:49;12.27;;;9.80;;
43540;SDS011;29549;40.386;-3.710;2023-12-04T00:38:00;13.18;;;10.05;;
43540;SDS011;29549;40.386;-3.710;2023-12-04T00:38:11;12.30;;;9.85;;
43540;SDS011;29549;40.386;-3.710;2023-12-04T00:38:22;12.77;;;10.05;;
43540;SDS011;29549;40.386;-3.710;2023-12-04T00:38:32;13.47;;;10.27;;
43540;SDS011;29549;40.386;-3.710;2023-12-04T00:38:43;13.93;;;10.32;;
43540;SDS011;29549;40.386;-3.710;2023-12-04T00:38:54;13.20;;;10.18;;
43540;SDS011;29549;40.386;-3.710;2023-12-04T00:39:05;12.82;;;9.85;;
43540;SDS011;29549;40.386;-3.710;2023-12-04T00:39:15;13.95;;;10.23;;
43540;SDS011;29549;40.386;-3.710;2023-12-04T00:39:26;13.68;;;10.32;;
43540;SDS011;29549;40.386;-3.710;2023-12-04T00:39:37;13.90;;;10.53;;
43540;SDS011;29549;40.386;-3.710;2023-12-04T00:39:48;12.95;;;10.05;;
43540;SDS011;29549;40.386;-3.710;2023-12-04T00:39:59;13.45;;;10.23;;
43540;SDS011;29549;40.386;-3.710;2023-12-04T00:40:10;13.07;;;10.20;;
43540;SDS011;29549;40.386;-3.710;2023-12-04T00:40:20;13.07;;;10.35;;
43540;SDS011;29549;40.386;-3.710;2023-12-04T00:40:31;13.05;;;10.32;;
43540;SDS011;29549;40.386;-3.710;2023-12-04T00:40:42;12.75;;;10.15;;
43540;SDS011;29549;40.386;-3.710;2023-12-04T00:40:53;12.45;;;10.20;;
43540;SDS011;29549;40.386;-3.710;2023-12-04T00:41:04;11.87;;;10.10;;
43540;SDS011;29549;40.386;-3.710;2023-12-04T00:41:15;11.98;;;10.27;;
43540;SDS011;29549;40.386;-3.710;2023-12-04T00:41:26;12.48;;;10.63;;
43540;SDS011;29549;40.386;-3.710;2023-12-04T00:41:36;12.95;;;11.20;;
43540;SDS011;29549;40.386;-3.710;2023-12-04T00:41:47;13.60;;;11.38;;
43540;SDS011;29549;40.386;-3.710;2023-12-04T00:41:58;14.20;;;11.38;;
43540;SDS011;29549;40.386;-3.710;2023-12-04T00:42:09;14.43;;;10.77;;
43540;SDS011;29549;40.386;-3.710;2023-12-04T00:42:19;13.27;;;10.38;;
43540;SDS011;29549;40.386;-3.710;2023-12-04T00:42:30;11.55;;;10.15;;
43540;SDS011;29549;40.386;-3.710;2023-12-04T00:42:41;11.77;;;10.32;;
43540;SDS011;29549;40.386;-3.710;2023-12-04T00:42:51;12.85;;;10.27;;
43540;SDS011;29549;40.386;-3.710;2023-12-04T00:43:02;13.53;;;10.20;;
43540;SDS011;29549;40.386;-3.710;2023-12-04T00:43:13;12.50;;;9.88;;
43540;SDS011;29549;40.386;-3.710;2023-12-04T00:43:24;11.30;;;9.73;;
43540;SDS011;29549;40.386;-3.710;2023-12-04T00:43:35;11.68;;;9.80;;
43540;SDS011;29549;40.386;-3.710;2023-12-04T00:43:46;13.77;;;10.32;;
43540;SDS011;29549;40.386;-3.710;2023-12-04T00:43:57;14.52;;;10.75;;
43540;SDS011;29549;40.386;-3.710;2023-12-04T00:44:08;13.93;;;10.77;;
43540;SDS011;29549;40.386;-3.710;2023-12-04T00:44:18;13.02;;;10.50;;
43540;SDS011;29549;40.386;-3.710;2023-12-04T00:44:29;13.85;;;10.68;;
43540;SDS011;29549;40.386;-3.710;2023-12-04T00:44:40;14.20;;;10.53;;
43540;SDS011;29549;40.386;-3.710;2023-12-04T00:44:50;13.45;;;10.40;;
43540;SDS011;29549;40.386;-3.710;2023-12-04T00:45:02;14.02;;;10.43;;
43540;SDS011;29549;40.386;-3.710;2023-12-04T00:45:13;15.20;;;11.05;;
43540;SDS011;29549;40.386;-3.710;2023-12-04T00:45:24;15.47;;;11.27;;
43540;SDS011;29549;40.386;-3.710;2023-12-04T00:45:35;15.27;;;11.18;;
43540;SDS011;29549;40.386;-3.710;2023-12-04T00:45:45;15.80;;;11.35;;
43540;SDS011;29549;40.386;-3.710;2023-12-04T00:45:56;15.35;;;10.77;;
43540;SDS011;29549;40.386;-3.710;2023-12-04T00:46:07;14.70;;;10.90;;
43540;SDS011;29549;40.386;-3.710;2023-12-04T00:46:18;13.32;;;11.18;;
43540;SDS011;29549;40.386;-3.710;2023-12-04T00:46:28;13.03;;;11.47;;
43540;SDS011;29549;40.386;-3.710;2023-12-04T00:46:39;12.80;;;11.15;;
43540;SDS011;29549;40.386;-3.710;2023-12-04T00:46:50;13.40;;;11.05;;
43540;SDS011;29549;40.386;-3.710;2023-12-04T00:47:00;13.38;;;10.80;;
43540;SDS011;29549;40.386;-3.710;2023-12-04T00:47:11;13.48;;;10.70;;
43540;SDS011;29549;40.386;-3.710;2023-12-04T00:47:22;14.47;;;10.80;;
43540;SDS011;29549;40.386;-3.710;2023-12-04T00:47:33;14.77;;;10.88;;
43540;SDS011;29549;40.386;-3.710;2023-12-04T00:47:43;14.20;;;11.00;;
43540;SDS011;29549;40.386;-3.710;2023-12-04T00:47:54;13.18;;;10.77;;
43540;SDS011;29549;40.386;-3.710;2023-12-04T00:48:05;12.90;;;10.83;;
43540;SDS011;29549;40.386;-3.710;2023-12-04T00:48:16;12.20;;;10.33;;
43540;SDS011;29549;40.386;-3.710;2023-12-04T00:48:27;11.90;;;10.23;;
43540;SDS011;29549;40.386;-3.710;2023-12-04T00:48:37;12.00;;;9.77;;
43540;SDS011;29549;40.386;-3.710;2023-12-04T00:48:48;11.77;;;9.75;;
43540;SDS011;29549;40.386;-3.710;2023-12-04T00:48:59;10.80;;;9.57;;
43540;SDS011;29549;40.386;-3.710;2023-12-04T00:49:09;12.05;;;9.80;;
43540;SDS011;29549;40.386;-3.710;2023-12-04T00:49:20;12.38;;;9.70;;
43540;SDS011;29549;40.386;-3.710;2023-12-04T00:49:31;12.77;;;9.77;;
43540;SDS011;29549;40.386;-3.710;2023-12-04T00:49:42;12.63;;;10.05;;
43540;SDS011;29549;40.386;-3.710;2023-12-04T00:49:53;12.32;;;9.93;;
43540;SDS011;29549;40.386;-3.710;2023-12-04T00:50:03;13.97;;;9.87;;
43540;SDS011;29549;40.386;-3.710;2023-12-04T00:50:15;14.00;;;9.68;;
43540;SDS011;29549;40.386;-3.710;2023-12-04T00:50:25;14.68;;;10.10;;
43540;SDS011;29549;40.386;-3.710;2023-12-04T00:50:36;13.50;;;10.47;;
43540;SDS011;29549;40.386;-3.710;2023-12-04T00:50:47;12.88;;;10.55;;
43540;SDS011;29549;40.386;-3.710;2023-12-04T00:50:58;12.13;;;10.18;;
43540;SDS011;29549;40.386;-3.710;2023-12-04T00:51:09;13.27;;;10.27;;
43540;SDS011;29549;40.386;-3.710;2023-12-04T00:51:19;13.75;;;10.65;;
43540;SDS011;29549;40.386;-3.710;2023-12-04T00:51:36;13.35;;;10.43;;
43540;SDS011;29549;40.386;-3.710;2023-12-04T00:51:47;12.40;;;9.93;;
43540;SDS011;29549;40.386;-3.710;2023-12-04T00:51:58;12.93;;;10.30;;
43540;SDS011;29549;40.386;-3.710;2023-12-04T00:52:09;13.93;;;10.65;;
43540;SDS011;29549;40.386;-3.710;2023-12-04T00:52:20;13.97;;;10.50;;
43540;SDS011;29549;40.386;-3.710;2023-12-04T00:52:30;13.75;;;10.43;;
43540;SDS011;29549;40.386;-3.710;2023-12-04T00:52:41;13.35;;;10.48;;
43540;SDS011;29549;40.386;-3.710;2023-12-04T00:52:52;14.60;;;10.60;;
43540;SDS011;29549;40.386;-3.710;2023-12-04T00:53:03;14.70;;;10.63;;
43540;SDS011;29549;40.386;-3.710;2023-12-04T00:53:14;15.00;;;10.65;;
43540;SDS011;29549;40.386;-3.710;2023-12-04T00:53:25;14.13;;;10.98;;
43540;SDS011;29549;40.386;-3.710;2023-12-04T00:53:35;14.23;;;10.73;;
43540;SDS011;29549;40.386;-3.710;2023-12-04T00:53:46;12.25;;;10.45;;
43540;SDS011;29549;40.386;-3.710;2023-12-04T00:53:57;12.13;;;10.43;;
43540;SDS011;29549;40.386;-3.710;2023-12-04T00:54:08;12.70;;;10.98;;
43540;SDS011;29549;40.386;-3.710;2023-12-04T00:54:18;13.80;;;11.20;;
43540;SDS011;29549;40.386;-3.710;2023-12-04T00:54:29;13.27;;;10.80;;
43540;SDS011;29549;40.386;-3.710;2023-12-04T00:54:40;13.98;;;10.60;;
43540;SDS011;29549;40.386;-3.710;2023-12-04T00:54:51;14.23;;;10.60;;
43540;SDS011;29549;40.386;-3.710;2023-12-04T00:55:01;14.88;;;10.48;;
43540;SDS011;29549;40.386;-3.710;2023-12-04T00:55:12;14.32;;;10.60;;
43540;SDS011;29549;40.386;-3.710;2023-12-04T00:55:24;13.43;;;10.30;;
43540;SDS011;29549;40.386;-3.710;2023-12-04T00:55:34;13.15;;;10.70;;
43540;SDS011;29549;40.386;-3.710;2023-12-04T00:55:45;12.73;;;10.70;;
43540;SDS011;29549;40.386;-3.710;2023-12-04T00:55:56;12.93;;;11.00;;
43540;SDS011;29549;40.386;-3.710;2023-12-04T00:56:07;13.18;;;10.98;;
43540;SDS011;29549;40.386;-3.710;2023-12-04T00:56:18;14.40;;;11.32;;
43540;SDS011;29549;40.386;-3.710;2023-12-04T00:56:30;14.00;;;11.38;;
43540;SDS011;29549;40.386;-3.710;2023-12-04T00:56:41;12.90;;;11.48;;
43540;SDS011;29549;40.386;-3.710;2023-12-04T00:56:52;14.23;;;11.45;;
43540;SDS011;29549;40.386;-3.710;2023-12-04T00:57:02;15.50;;;11.70;;
43540;SDS011;29549;40.386;-3.710;2023-12-04T00:57:13;14.98;;;11.00;;
43540;SDS011;29549;40.386;-3.710;2023-12-04T00:57:24;14.27;;;10.65;;
43540;SDS011;29549;40.386;-3.710;2023-12-04T00:57:35;13.80;;;10.18;;
43540;SDS011;29549;40.386;-3.710;2023-12-04T00:57:46;14.27;;;10.32;;
43540;SDS011;29549;40.386;-3.710;2023-12-04T00:57:56;13.63;;;10.43;;
43540;SDS011;29549;40.386;-3.710;2023-12-04T00:58:07;13.90;;;10.60;;
43540;SDS011;29549;40.386;-3.710;2023-12-04T00:58:18;13.48;;;10.52;;
43540;SDS011;29549;40.386;-3.710;2023-12-04T00:58:29;13.85;;;10.50;;
43540;SDS011;29549;40.386;-3.710;2023-12-04T00:58:39;13.48;;;10.57;;
43540;SDS011;29549;40.386;-3.710;2023-12-04T00:58:50;12.75;;;10.45;;
43540;SDS011;29549;40.386;-3.710;2023-12-04T00:59:01;12.20;;;10.37;;
43540;SDS011;29549;40.386;-3.710;2023-12-04T00:59:13;12.30;;;10.45;;
43540;SDS011;29549;40.386;-3.710;2023-12-04T00:59:24;12.98;;;10.27;;
43540;SDS011;29549;40.386;-3.710;2023-12-04T00:59:35;13.15;;;10.40;;
43540;SDS011;29549;40.386;-3.710;2023-12-04T00:59:46;13.33;;;10.30;;
43540;SDS011;29549;40.386;-3.710;2023-12-04T00:59:56;12.98;;;10.40;;
43540;SDS011;29549;40.386;-3.710;2023-12-04T01:00:07;14.15;;;10.45;;
43540;SDS011;29549;40.386;-3.710;2023-12-04T01:00:19;14.63;;;10.45;;
43540;SDS011;29549;40.386;-3.710;2023-12-04T01:00:29;14.23;;;10.52;;
43540;SDS011;29549;40.386;-3.710;2023-12-04T01:00:40;14.70;;;10.73;;
43540;SDS011;29549;40.386;-3.710;2023-12-04T01:00:51;13.82;;;10.18;;
43540;SDS011;29549;40.386;-3.710;2023-12-04T01:01:02;12.25;;;9.75;;
43540;SDS011;29549;40.386;-3.710;2023-12-04T01:01:13;12.55;;;9.85;;
43540;SDS011;29549;40.386;-3.710;2023-12-04T01:01:24;12.82;;;10.30;;
43540;SDS011;29549;40.386;-3.710;2023-12-04T01:01:35;13.40;;;10.30;;
43540;SDS011;29549;40.386;-3.710;2023-12-04T01:01:49;13.65;;;10.82;;
43540;SDS011;29549;40.386;-3.710;2023-12-04T01:02:00;15.20;;;11.00;;
43540;SDS011;29549;40.386;-3.710;2023-12-04T01:02:11;14.45;;;10.68;;
43540;SDS011;29549;40.386;-3.710;2023-12-04T01:02:22;14.10;;;10.57;;
43540;SDS011;29549;40.386;-3.710;2023-12-04T01:02:32;12.57;;;10.73;;
43540;SDS011;29549;40.386;-3.710;2023-12-04T01:02:43;12.73;;;10.80;;
43540;SDS011;29549;40.386;-3.710;2023-12-04T01:02:54;13.00;;;10.60;;
43540;SDS011;29549;40.386;-3.710;2023-12-04T01:03:05;13.45;;;10.60;;
43540;SDS011;29549;40.386;-3.710;2023-12-04T01:03:15;12.82;;;10.38;;